createdAt,value
2023-05-24T00:01:57.073Z,53.29
2023-05-24T00:04:25.471Z,53.31
2023-05-24T00:06:55.035Z,53.51
2023-05-24T00:09:21.939Z,53.78
2023-05-24T00:11:48.751Z,53.28
2023-05-24T00:14:15.588Z,53.72
2023-05-24T00:16:42.344Z,53.72
2023-05-24T00:19:11.371Z,53.73
2023-05-24T00:21:38.494Z,53.74
2023-05-24T00:24:05.219Z,53.80
2023-05-24T00:26:31.854Z,53.66
2023-05-24T00:28:58.702Z,53.84
2023-05-24T00:31:25.305Z,54.06
2023-05-24T00:33:51.900Z,53.97
2023-05-24T00:36:18.586Z,54.04
2023-05-24T00:38:47.662Z,53.99
2023-05-24T00:41:16.388Z,53.78
2023-05-24T00:43:46.175Z,53.92
2023-05-24T00:46:15.498Z,54.12
2023-05-24T00:48:42.978Z,54.17
2023-05-24T00:51:10.157Z,54.15
2023-05-24T00:53:37.883Z,54.21
2023-05-24T00:56:04.709Z,54.32
2023-05-24T00:58:32.592Z,54.30
2023-05-24T01:01:01.231Z,54.46
2023-05-24T01:03:31.788Z,54.31
2023-05-24T01:06:01.528Z,54.49
2023-05-24T01:08:40.473Z,54.29
2023-05-24T01:11:29.828Z,54.25
2023-05-24T01:14:34.000Z,54.49
2023-05-24T01:17:06.768Z,54.67
2023-05-24T01:19:43.382Z,54.42
2023-05-24T01:22:25.735Z,54.72
2023-05-24T01:25:21.209Z,54.74
2023-05-24T01:27:48.273Z,55.03
2023-05-24T01:30:15.558Z,55.06
2023-05-24T01:32:42.733Z,54.82
2023-05-24T01:35:09.576Z,54.68
2023-05-24T01:37:36.163Z,54.97
2023-05-24T01:40:04.366Z,55.03
2023-05-24T01:42:41.918Z,55.00
2023-05-24T01:45:23.085Z,54.91
2023-05-24T01:47:58.153Z,54.87
2023-05-24T01:50:43.665Z,54.92
2023-05-24T01:53:13.516Z,55.00
2023-05-24T01:55:40.991Z,54.90
2023-05-24T01:58:10.006Z,55.15
2023-05-24T02:00:37.707Z,55.11
2023-05-24T02:03:05.144Z,55.36
2023-05-24T02:05:34.918Z,55.15
2023-05-24T02:08:05.822Z,55.11
2023-05-24T02:10:32.397Z,55.22
2023-05-24T02:12:59.574Z,55.04
2023-05-24T02:15:30.524Z,55.19
2023-05-24T02:17:57.916Z,55.26
2023-05-24T02:20:24.590Z,55.19
2023-05-24T02:22:51.362Z,55.29
2023-05-24T02:25:18.007Z,55.40
2023-05-24T02:27:47.115Z,55.31
2023-05-24T02:30:13.925Z,55.36
2023-05-24T02:32:41.445Z,55.48
2023-05-24T02:35:08.119Z,55.37
2023-05-24T02:37:34.971Z,55.64
2023-05-24T02:40:01.761Z,55.70
2023-05-24T02:42:28.321Z,55.70
2023-05-24T02:44:54.830Z,55.75
2023-05-24T02:47:21.502Z,55.48
2023-05-24T02:49:48.157Z,55.40
2023-05-24T02:52:15.986Z,55.37
2023-05-24T02:54:42.686Z,55.60
2023-05-24T02:57:09.251Z,55.68
2023-05-24T02:59:36.470Z,55.65
2023-05-24T03:02:03.260Z,55.72
2023-05-24T03:04:30.037Z,55.85
2023-05-24T03:06:57.057Z,55.66
2023-05-24T03:09:23.652Z,55.58
2023-05-24T03:11:51.708Z,55.66
2023-05-24T03:14:20.408Z,55.95
2023-05-24T03:16:46.931Z,55.83
2023-05-24T03:19:13.499Z,55.63
2023-05-24T03:21:40.074Z,55.97
2023-05-24T03:24:06.856Z,55.83
2023-05-24T03:26:33.351Z,55.79
2023-05-24T03:28:59.993Z,55.94
2023-05-24T03:31:33.565Z,55.64
2023-05-24T03:34:00.661Z,56.03
2023-05-24T03:36:29.216Z,55.80
2023-05-24T03:38:58.324Z,56.03
2023-05-24T03:41:26.195Z,55.76
2023-05-24T03:43:53.101Z,55.86
2023-05-24T03:46:20.922Z,55.83
2023-05-24T03:48:48.918Z,56.13
2023-05-24T03:51:15.738Z,56.10
2023-05-24T03:53:42.341Z,56.00
2023-05-24T03:56:09.469Z,56.13
2023-05-24T03:58:36.292Z,56.25
2023-05-24T04:01:03.507Z,56.13
2023-05-24T04:03:30.140Z,56.38
2023-05-24T04:05:56.855Z,56.23
2023-05-24T04:08:23.413Z,56.47
2023-05-24T04:10:49.953Z,56.42
2023-05-24T04:13:16.527Z,56.64
2023-05-24T04:15:43.432Z,56.49
2023-05-24T04:18:12.038Z,56.47
2023-05-24T04:20:38.925Z,56.30
2023-05-24T04:23:05.803Z,56.44
2023-05-24T04:25:33.572Z,56.60
2023-05-24T04:28:00.358Z,56.74
2023-05-24T04:30:30.110Z,56.59
2023-05-24T04:32:57.923Z,56.56
2023-05-24T04:35:27.749Z,56.50
2023-05-24T04:37:54.377Z,56.46
2023-05-24T04:40:21.059Z,56.50
2023-05-24T04:42:47.729Z,56.74
2023-05-24T04:45:14.368Z,56.81
2023-05-24T04:47:41.408Z,56.63
2023-05-24T04:50:08.344Z,56.78
2023-05-24T04:52:36.538Z,57.10
2023-05-24T04:55:03.926Z,56.96
2023-05-24T04:57:30.556Z,56.98
2023-05-24T04:59:57.455Z,57.00
2023-05-24T05:02:26.481Z,57.07
2023-05-24T05:04:53.476Z,56.90
2023-05-24T05:07:20.058Z,56.97
2023-05-24T05:09:46.685Z,56.90
2023-05-24T05:12:13.282Z,56.74
2023-05-24T05:14:39.908Z,56.97
2023-05-24T05:17:06.433Z,57.09
2023-05-24T05:19:32.863Z,56.79
2023-05-24T05:21:59.400Z,56.94
2023-05-24T05:24:25.870Z,57.12
2023-05-24T05:26:52.369Z,57.08
2023-05-24T05:29:19.172Z,57.08
2023-05-24T05:31:46.885Z,57.21
2023-05-24T05:34:13.395Z,57.21
2023-05-24T05:36:40.854Z,57.15
2023-05-24T05:39:10.870Z,57.29
2023-05-24T05:41:45.922Z,57.41
2023-05-24T05:44:14.461Z,57.52
2023-05-24T05:46:43.859Z,57.68
2023-05-24T05:49:10.703Z,57.62
2023-05-24T05:51:38.635Z,57.57
2023-05-24T05:54:06.066Z,57.63
2023-05-24T05:56:32.870Z,57.77
2023-05-24T05:58:59.566Z,57.79
2023-05-24T06:01:26.257Z,58.35
2023-05-24T06:03:52.906Z,58.21
2023-05-24T06:06:19.476Z,58.09
2023-05-24T06:08:46.297Z,58.19
2023-05-24T06:11:12.937Z,58.41
2023-05-24T06:13:39.532Z,58.31
2023-05-24T06:16:08.473Z,58.26
2023-05-24T06:18:36.597Z,58.35
2023-05-24T06:21:03.278Z,58.38
2023-05-24T06:23:30.081Z,58.39
2023-05-24T06:25:56.675Z,58.45
2023-05-24T06:28:23.302Z,58.62
2023-05-24T06:30:49.871Z,58.60
2023-05-24T06:33:16.671Z,58.75
2023-05-24T06:35:43.208Z,58.74
2023-05-24T06:38:09.785Z,58.74
2023-05-24T06:40:36.513Z,58.76
2023-05-24T06:43:04.746Z,58.60
2023-05-24T06:45:31.919Z,58.81
2023-05-24T06:47:59.051Z,58.75
2023-05-24T06:50:25.759Z,58.84
2023-05-24T06:52:52.350Z,58.75
2023-05-24T06:55:19.931Z,58.63
2023-05-24T06:57:46.559Z,58.79
2023-05-24T07:00:13.701Z,58.80
2023-05-24T07:02:40.573Z,58.91
2023-05-24T07:05:12.451Z,58.97
2023-05-24T07:07:40.178Z,58.92
2023-05-24T07:10:08.312Z,58.91
2023-05-24T07:12:35.013Z,59.27
2023-05-24T07:15:01.990Z,59.30
2023-05-24T07:17:28.614Z,59.25
2023-05-24T07:19:55.265Z,59.23
2023-05-24T07:22:22.776Z,59.16
2023-05-24T07:24:49.353Z,59.37
2023-05-24T07:27:15.978Z,59.08
2023-05-24T07:29:42.656Z,59.18
2023-05-24T07:32:09.369Z,59.05
2023-05-24T07:34:35.995Z,59.27
2023-05-24T07:37:02.551Z,59.12
2023-05-24T07:39:29.259Z,58.99
2023-05-24T07:41:56.125Z,58.94
2023-05-24T07:44:23.856Z,58.67
2023-05-24T07:46:51.035Z,58.70
2023-05-24T07:49:17.834Z,58.75
2023-05-24T07:51:44.656Z,58.59
2023-05-24T07:54:11.737Z,58.67
2023-05-24T07:56:38.766Z,58.65
2023-05-24T07:59:05.344Z,58.75
2023-05-24T08:01:34.462Z,58.81
2023-05-24T08:04:04.178Z,58.82
2023-05-24T08:06:32.820Z,58.67
2023-05-24T08:08:59.450Z,58.82
2023-05-24T08:11:26.618Z,59.11
2023-05-24T08:13:53.242Z,58.96
2023-05-24T08:16:19.862Z,59.09
2023-05-24T08:18:46.581Z,59.15
2023-05-24T08:21:13.251Z,59.13
2023-05-24T08:23:39.814Z,59.33
2023-05-24T08:26:06.396Z,59.09
2023-05-24T08:28:33.381Z,59.27
2023-05-24T08:31:00.121Z,59.52
2023-05-24T08:33:26.708Z,59.15
2023-05-24T08:35:53.284Z,59.35
2023-05-24T08:38:19.924Z,59.73
2023-05-24T08:40:48.185Z,59.36
2023-05-24T08:43:15.218Z,59.40
2023-05-24T08:45:43.154Z,59.29
2023-05-24T08:48:10.164Z,59.19
2023-05-24T08:50:37.003Z,59.18
2023-05-24T08:53:07.366Z,59.24
2023-05-24T08:55:35.408Z,59.07
2023-05-24T08:58:02.158Z,59.28
2023-05-24T09:00:29.014Z,59.28
2023-05-24T09:02:57.413Z,59.29
2023-05-24T09:05:25.851Z,59.25
2023-05-24T09:07:54.280Z,59.23
2023-05-24T09:10:23.801Z,59.24
2023-05-24T09:12:55.848Z,59.07
2023-05-24T09:15:22.701Z,59.40
2023-05-24T09:17:49.442Z,59.06
2023-05-24T09:20:16.414Z,59.20
2023-05-24T09:22:43.975Z,59.17
2023-05-24T09:25:14.165Z,59.37
2023-05-24T09:27:41.488Z,59.48
2023-05-24T09:30:10.315Z,59.64
2023-05-24T09:32:37.331Z,59.72
2023-05-24T09:35:08.414Z,59.95
2023-05-24T09:37:38.537Z,59.84
2023-05-24T09:40:07.167Z,60.10
2023-05-24T09:42:33.919Z,59.84
2023-05-24T09:45:10.540Z,59.87
2023-05-24T09:47:39.033Z,59.77
2023-05-24T09:50:11.883Z,60.13
2023-05-24T09:52:39.458Z,61.24
2023-05-24T09:55:15.381Z,60.74
2023-05-24T09:57:44.010Z,60.63
2023-05-24T10:00:17.566Z,60.55
2023-05-24T10:02:53.095Z,60.41
2023-05-24T10:05:21.189Z,60.26
2023-05-24T10:07:48.310Z,60.42
2023-05-24T10:10:15.426Z,60.63
2023-05-24T10:12:44.091Z,60.18
2023-05-24T10:15:12.207Z,60.20
2023-05-24T10:17:39.025Z,60.06
2023-05-24T10:20:09.979Z,59.85
2023-05-24T10:22:51.865Z,59.89
2023-05-24T10:25:25.775Z,59.75
2023-05-24T10:27:57.499Z,59.90
2023-05-24T10:30:47.460Z,60.04
2023-05-24T10:33:14.718Z,60.29
2023-05-24T10:35:42.651Z,60.25
2023-05-24T10:38:09.463Z,60.58
2023-05-24T10:40:42.011Z,60.15
2023-05-24T10:43:08.818Z,60.29
2023-05-24T10:45:40.699Z,60.25
2023-05-24T10:48:13.935Z,60.23
2023-05-24T10:50:42.103Z,60.22
2023-05-24T10:53:13.901Z,60.47
2023-05-24T10:56:01.135Z,60.66
2023-05-24T10:58:33.769Z,60.54
2023-05-24T11:01:00.379Z,60.65
2023-05-24T11:03:33.238Z,60.74
2023-05-24T11:06:00.245Z,60.87
2023-05-24T11:08:33.227Z,60.68
2023-05-24T11:11:22.506Z,60.69
2023-05-24T11:13:56.140Z,60.50
2023-05-24T11:16:35.193Z,60.39
2023-05-24T11:21:50.086Z,59.97
2023-05-24T11:24:21.697Z,59.93
2023-05-24T11:26:52.127Z,59.97
2023-05-24T11:29:22.111Z,60.00
2023-05-24T11:31:53.111Z,60.16
2023-05-24T11:34:21.162Z,60.42
2023-05-24T11:36:48.584Z,60.21
2023-05-24T11:39:16.252Z,60.09
2023-05-24T11:41:43.120Z,60.08
2023-05-24T11:44:10.797Z,59.87
2023-05-24T11:46:39.654Z,59.78
2023-05-24T11:49:06.998Z,59.59
2023-05-24T11:51:35.137Z,59.47
2023-05-24T11:54:01.899Z,59.64
2023-05-24T11:56:33.954Z,59.57
2023-05-24T11:59:10.090Z,59.51
2023-05-24T12:01:38.055Z,59.46
2023-05-24T12:04:06.389Z,59.29
2023-05-24T12:06:41.490Z,59.11
2023-05-24T12:09:10.655Z,58.93
2023-05-24T12:11:42.076Z,58.99
2023-05-24T12:14:17.604Z,58.69
2023-05-24T12:16:45.926Z,59.04
2023-05-24T12:19:31.762Z,58.94
2023-05-24T12:21:59.626Z,58.85
2023-05-24T12:24:27.668Z,58.89
2023-05-24T12:26:59.263Z,58.73
2023-05-24T12:29:25.869Z,58.93
2023-05-24T12:31:52.955Z,58.96
2023-05-24T12:34:20.242Z,58.82
2023-05-24T12:36:48.105Z,58.88
2023-05-24T12:39:18.113Z,58.81
2023-05-24T12:41:45.724Z,58.79
2023-05-24T12:44:12.523Z,58.91
2023-05-24T12:46:39.395Z,58.46
2023-05-24T12:49:06.007Z,58.55
2023-05-24T12:51:32.600Z,58.33
2023-05-24T12:53:59.181Z,58.22
2023-05-24T12:56:27.420Z,58.11
2023-05-24T12:58:55.748Z,58.26
2023-05-24T13:01:22.460Z,57.91
2023-05-24T13:03:49.098Z,57.60
2023-05-24T13:06:16.138Z,57.14
2023-05-24T13:08:42.717Z,57.24
2023-05-24T13:11:09.341Z,57.20
2023-05-24T13:13:35.901Z,57.00
2023-05-24T13:16:02.860Z,56.93
2023-05-24T13:18:30.376Z,56.96
2023-05-24T13:21:00.291Z,56.94
2023-05-24T13:23:27.603Z,56.85
2023-05-24T13:25:54.215Z,56.92
2023-05-24T13:28:20.818Z,56.70
2023-05-24T13:30:48.721Z,56.75
2023-05-24T13:33:15.861Z,56.88
2023-05-24T13:35:42.587Z,56.64
2023-05-24T13:38:09.592Z,56.82
2023-05-24T13:40:37.400Z,56.55
2023-05-24T13:43:04.827Z,56.40
2023-05-24T13:45:33.202Z,56.50
2023-05-24T13:48:04.504Z,56.64
2023-05-24T13:50:33.187Z,56.71
2023-05-24T13:53:03.652Z,56.57
2023-05-24T13:55:32.257Z,56.55
2023-05-24T13:57:59.031Z,56.74
2023-05-24T14:00:25.528Z,56.64
2023-05-24T14:02:52.563Z,56.52
2023-05-24T14:05:27.471Z,56.60
2023-05-24T14:07:55.729Z,56.74
2023-05-24T14:10:22.625Z,56.45
2023-05-24T14:13:03.408Z,56.68
2023-05-24T14:15:36.280Z,56.57
2023-05-24T14:18:07.715Z,56.68
2023-05-24T14:20:37.814Z,56.77
2023-05-24T14:23:04.972Z,56.73
2023-05-24T14:25:32.007Z,56.65
2023-05-24T14:27:59.425Z,57.02
2023-05-24T14:30:26.815Z,56.76
2023-05-24T14:32:53.519Z,56.53
2023-05-24T14:35:20.244Z,56.54
2023-05-24T14:37:46.910Z,56.45
2023-05-24T14:40:13.731Z,56.64
2023-05-24T14:42:42.069Z,56.63
2023-05-24T14:45:09.696Z,56.51
2023-05-24T14:47:37.694Z,56.71
2023-05-24T14:50:06.236Z,56.35
2023-05-24T14:52:36.834Z,56.32
2023-05-24T14:55:05.307Z,56.39
2023-05-24T14:57:32.290Z,56.33
2023-05-24T14:59:59.918Z,56.44
2023-05-24T15:02:28.319Z,56.35
2023-05-24T15:04:56.090Z,56.26
2023-05-24T15:07:24.287Z,55.62
2023-05-24T15:09:53.246Z,55.68
2023-05-24T15:12:21.180Z,55.58
2023-05-24T15:14:48.393Z,55.65
2023-05-24T15:17:16.389Z,55.58
2023-05-24T15:19:58.328Z,55.60
2023-05-24T15:22:50.577Z,55.66
2023-05-24T15:25:30.402Z,55.71
2023-05-24T15:28:03.217Z,55.84
2023-05-24T15:30:30.376Z,55.77
2023-05-24T15:32:57.313Z,55.52
2023-05-24T15:35:23.908Z,55.60
2023-05-24T15:37:50.646Z,55.47
2023-05-24T15:40:18.620Z,55.53
2023-05-24T15:42:45.353Z,55.91
2023-05-24T15:45:12.086Z,56.17
2023-05-24T15:47:40.295Z,55.97
2023-05-24T15:50:08.548Z,56.08
2023-05-24T15:52:35.680Z,56.17
2023-05-24T15:55:02.273Z,55.63
2023-05-24T15:57:28.913Z,56.25
2023-05-24T15:59:55.527Z,56.15
2023-05-24T16:02:22.570Z,55.89
2023-05-24T16:04:50.176Z,55.92
2023-05-24T16:07:18.179Z,55.92
2023-05-24T16:09:46.778Z,56.08
2023-05-24T16:12:13.389Z,56.00
2023-05-24T16:14:40.102Z,56.00
2023-05-24T16:17:06.828Z,56.00
2023-05-24T16:19:33.528Z,55.68
2023-05-24T16:22:00.071Z,55.83
2023-05-24T16:24:27.478Z,55.65
2023-05-24T16:26:54.136Z,55.29
2023-05-24T16:29:21.345Z,54.94
2023-05-24T16:31:48.268Z,54.98
2023-05-24T16:34:15.154Z,54.87
2023-05-24T16:36:42.125Z,54.83
2023-05-24T16:39:08.641Z,54.83
2023-05-24T16:41:37.548Z,55.15
2023-05-24T16:44:04.826Z,54.87
2023-05-24T16:46:31.892Z,54.73
2023-05-24T16:48:59.458Z,54.65
2023-05-24T16:51:26.428Z,54.72
2023-05-24T16:53:53.248Z,54.97
2023-05-24T16:56:19.893Z,54.77
2023-05-24T16:58:46.452Z,54.97
2023-05-24T17:01:12.973Z,54.73
2023-05-24T17:03:39.895Z,54.98
2023-05-24T17:06:06.548Z,54.76
2023-05-24T17:08:35.150Z,54.93
2023-05-24T17:11:02.825Z,55.27
2023-05-24T17:13:29.519Z,55.14
2023-05-24T17:15:57.263Z,55.17
2023-05-24T17:18:27.868Z,55.43
2023-05-24T17:20:59.980Z,55.62
2023-05-24T17:23:28.220Z,55.59
2023-05-24T17:25:58.327Z,56.06
2023-05-24T17:28:27.758Z,56.04
2023-05-24T17:30:59.213Z,55.73
2023-05-24T17:33:27.959Z,56.15
2023-05-24T17:35:57.751Z,55.81
2023-05-24T17:38:25.257Z,55.99
2023-05-24T17:40:59.363Z,55.78
2023-05-24T17:43:32.685Z,55.71
2023-05-24T17:46:05.922Z,55.74
2023-05-24T17:48:34.177Z,55.44
2023-05-24T17:51:02.044Z,55.68
2023-05-24T17:53:33.499Z,55.46
2023-05-24T17:56:00.689Z,55.29
2023-05-24T17:58:28.470Z,55.49
2023-05-24T18:00:54.964Z,55.18
2023-05-24T18:03:21.470Z,55.34
2023-05-24T18:05:47.962Z,55.53
2023-05-24T18:08:14.429Z,55.52
2023-05-24T18:10:40.920Z,55.03
2023-05-24T18:13:11.171Z,55.09
2023-05-24T18:15:37.938Z,54.94
2023-05-24T18:18:04.712Z,54.91
2023-05-24T18:20:31.275Z,55.22
2023-05-24T18:22:58.075Z,54.83
2023-05-24T18:25:25.030Z,55.18
2023-05-24T18:27:51.672Z,55.02
2023-05-24T18:30:18.244Z,54.86
2023-05-24T18:33:02.766Z,55.17
2023-05-24T18:35:30.615Z,54.62
2023-05-24T18:37:57.640Z,54.76
2023-05-24T18:40:24.119Z,54.69
2023-05-24T18:42:50.946Z,54.94
2023-05-24T18:45:17.516Z,54.58
2023-05-24T18:47:44.126Z,54.79
2023-05-24T18:50:11.046Z,54.61
2023-05-24T18:52:37.660Z,54.80
2023-05-24T18:55:10.600Z,54.93
2023-05-24T18:57:37.952Z,54.59
2023-05-24T19:00:05.920Z,54.49
2023-05-24T19:02:38.201Z,54.64
2023-05-24T19:05:08.452Z,54.60
2023-05-24T19:07:35.876Z,54.51
2023-05-24T19:10:02.898Z,54.73
2023-05-24T19:12:30.150Z,54.46
2023-05-24T19:14:56.845Z,54.15
2023-05-24T19:17:24.692Z,54.54
2023-05-24T19:19:51.384Z,54.55
2023-05-24T19:22:17.900Z,54.51
2023-05-24T19:24:44.374Z,54.54
2023-05-24T19:27:10.990Z,54.71
2023-05-24T19:29:37.538Z,54.46
2023-05-24T19:32:04.461Z,54.33
2023-05-24T19:34:32.000Z,54.24
2023-05-24T19:36:58.470Z,54.26
2023-05-24T19:39:25.224Z,54.51
2023-05-24T19:41:52.466Z,54.33
2023-05-24T19:44:19.396Z,54.38
2023-05-24T19:46:45.975Z,54.32
2023-05-24T19:49:12.542Z,54.59
2023-05-24T19:51:39.017Z,54.48
2023-05-24T19:54:05.978Z,54.40
2023-05-24T19:56:32.612Z,54.44
2023-05-24T19:58:59.259Z,54.44
2023-05-24T20:01:25.928Z,54.49
2023-05-24T20:03:52.951Z,54.86
2023-05-24T20:06:19.522Z,54.65
2023-05-24T20:08:46.506Z,54.81
2023-05-24T20:11:14.213Z,54.97
2023-05-24T20:13:40.691Z,54.78
2023-05-24T20:16:07.322Z,54.82
2023-05-24T20:18:36.773Z,54.72
2023-05-24T20:21:03.503Z,54.92
2023-05-24T20:23:30.776Z,54.77
2023-05-24T20:25:57.549Z,54.97
2023-05-24T20:28:30.770Z,55.03
2023-05-24T20:30:58.253Z,55.05
2023-05-24T20:33:24.742Z,55.16
2023-05-24T20:35:52.988Z,54.96
2023-05-24T20:38:19.800Z,55.10
2023-05-24T20:40:46.561Z,54.88
2023-05-24T20:43:13.384Z,55.20
2023-05-24T20:45:39.972Z,55.03
2023-05-24T20:48:06.693Z,55.06
2023-05-24T20:50:33.357Z,55.17
2023-05-24T20:52:59.914Z,55.36
2023-05-24T20:55:27.085Z,55.64
2023-05-24T20:57:54.112Z,55.80
2023-05-24T21:00:21.147Z,55.64
2023-05-24T21:02:47.827Z,55.49
2023-05-24T21:05:14.767Z,55.71
2023-05-24T21:07:41.507Z,55.72
2023-05-24T21:10:09.281Z,55.95
2023-05-24T21:12:35.740Z,55.98
2023-05-24T21:15:02.622Z,56.12
2023-05-24T21:17:30.735Z,55.92
2023-05-24T21:19:57.261Z,55.88
2023-05-24T21:22:23.747Z,55.89
2023-05-24T21:24:50.443Z,56.09
2023-05-24T21:27:18.729Z,56.08
2023-05-24T21:29:45.373Z,56.11
2023-05-24T21:32:11.856Z,56.08
2023-05-24T21:34:38.313Z,56.07
2023-05-24T21:37:05.095Z,56.18
2023-05-24T21:39:32.598Z,56.19
2023-05-24T21:41:59.066Z,56.12
2023-05-24T21:44:25.821Z,56.22
2023-05-24T21:46:52.415Z,56.18
2023-05-24T21:49:20.003Z,55.98
2023-05-24T21:51:46.847Z,56.03
2023-05-24T21:54:13.375Z,56.03
2023-05-24T21:56:39.847Z,56.17
2023-05-24T21:59:06.758Z,56.17
2023-05-24T22:01:33.370Z,56.09
2023-05-24T22:03:59.963Z,56.16
2023-05-24T22:06:26.709Z,56.11
2023-05-24T22:08:53.207Z,56.02
2023-05-24T22:11:19.725Z,56.21
2023-05-24T22:13:46.465Z,56.14
2023-05-24T22:16:12.989Z,56.09
2023-05-24T22:18:39.551Z,56.16
2023-05-24T22:21:06.071Z,56.08
2023-05-24T22:23:32.514Z,56.02
2023-05-24T22:25:58.982Z,56.16
2023-05-24T22:28:25.978Z,56.21
2023-05-24T22:30:52.464Z,56.31
2023-05-24T22:33:19.994Z,56.14
2023-05-24T22:35:46.576Z,56.18
2023-05-24T22:38:13.084Z,56.25
2023-05-24T22:40:42.015Z,56.15
2023-05-24T22:43:08.539Z,56.32
2023-05-24T22:45:35.028Z,56.41
2023-05-24T22:48:03.194Z,56.38
2023-05-24T22:50:29.957Z,56.39
2023-05-24T22:52:56.611Z,56.36
2023-05-24T22:55:23.700Z,56.50
2023-05-24T22:57:50.203Z,56.56
2023-05-24T23:00:17.309Z,56.39
2023-05-24T23:02:44.005Z,56.63
2023-05-24T23:05:11.521Z,56.76
2023-05-24T23:07:39.683Z,56.56
2023-05-24T23:10:07.946Z,56.73
2023-05-24T23:12:35.811Z,56.78
2023-05-24T23:15:02.654Z,56.93
2023-05-24T23:17:29.268Z,56.92
2023-05-24T23:19:55.820Z,56.82
2023-05-24T23:22:23.514Z,57.01
2023-05-24T23:24:50.018Z,57.15
2023-05-24T23:27:16.725Z,57.09
2023-05-24T23:29:43.350Z,57.25
2023-05-24T23:32:10.062Z,57.28
2023-05-24T23:34:37.083Z,57.33
2023-05-24T23:37:04.860Z,57.35
2023-05-24T23:39:31.528Z,57.46
2023-05-24T23:41:58.154Z,57.31
2023-05-24T23:44:25.579Z,57.32
2023-05-24T23:46:52.958Z,57.40
2023-05-24T23:49:20.441Z,57.36
2023-05-24T23:51:47.336Z,57.41
2023-05-24T23:54:14.710Z,57.39
2023-05-24T23:56:42.759Z,57.59
2023-05-24T23:59:09.495Z,57.54
